サンパウロ/グアルーリョス の空港の天気 - METARとTAF

グアルーリョス国際空港 (サンパウロ) ( SBGR / GRU ) - ブラジル サンパウロ州サンパウロ市
飛行場実況気象(Metar)
観測時間04/21 14:00 BRT (04/21 17:00 UTC)
風向・風速西 3m/s
視程10km以上
天気現象
なし
気温29℃
湿度52%
気圧1015hPa
METARSBGR 211700Z 27006KT CAVOK 29/18 Q1015
過去の天気等 Google飛行場航空写真 Wunderground天気予報

過去48時間のMETAR

飛行場予報(TAF)
発表時間: 4/21 07:03 BRT (4/21 10:03 UTC)
予報対象時間: 21日9時 BRT ~ 22日15時 BRT
風向・風速北東 2m/s
視程10km以上
なし
21日10時 BRT ~ 21日12時 BRT に徐々に
風向・風速西 4m/s
少しの雲 雲底高度 1370m
21日15時 BRT から 確率 30% で
風向・風速南 4m/s
天気現象
全天の4割程度の雲 雲底高度 1220m
少しの積乱雲 雲底高度 1370m
21日19時 BRT ~ 21日21時 BRT に徐々に
風向・風速北東 3m/s
視程10km以上
なし
22日10時 BRT ~ 22日12時 BRT に徐々に
風向・風速西北西 3m/s
全天の4割程度の雲 雲底高度 1220m
22日13時 BRT から 確率 40% で
風向・風速南南西 5m/s
視程7000m
天気現象雷雨
全天の8割程度の雲 雲底高度 910m
少しの積乱雲 雲底高度 1370m
TAF SBGR 211003Z 2112/2218 04003KT CAVOK TX28/2118Z TN18/2208Z
BECMG 2113/2115 28007KT FEW045
PROB30 2118/2121 18008KT TS SCT040 FEW045CB
BECMG 2122/2124 05005KT CAVOK
BECMG 2213/2215 30005KT SCT040
PROB40 2216/2218 20010KT 7000 TSRA BKN030 FEW045CB RMK PGN